createdAt,value
2018-07-16T00:00:21.325Z,9.67
2018-07-16T00:02:50.170Z,7.13
2018-07-16T00:05:18.913Z,7.47
2018-07-16T00:07:47.464Z,7.30
2018-07-16T00:10:16.253Z,7.10
2018-07-16T00:12:45.054Z,6.20
2018-07-16T00:15:13.794Z,8.87
2018-07-16T00:17:42.549Z,8.47
2018-07-16T00:20:11.120Z,6.33
2018-07-16T00:22:39.619Z,7.53
2018-07-16T00:25:08.273Z,6.90
2018-07-16T00:27:37.041Z,6.87
2018-07-16T00:33:02.873Z,7.73
2018-07-16T00:35:31.662Z,9.87
2018-07-16T00:38:00.446Z,9.70
2018-07-16T00:40:29.227Z,13.97
2018-07-16T00:42:57.989Z,16.20
2018-07-16T00:45:26.754Z,15.20
2018-07-16T00:47:55.526Z,17.53
2018-07-16T00:50:24.282Z,16.40
2018-07-16T00:52:53.082Z,14.47
2018-07-16T00:55:21.829Z,15.37
2018-07-16T00:57:50.597Z,14.73
2018-07-16T01:00:19.387Z,16.23
2018-07-16T01:02:48.150Z,13.23
2018-07-16T01:05:16.970Z,12.07
2018-07-16T01:07:45.536Z,12.13
2018-07-16T01:10:14.225Z,9.00
2018-07-16T01:12:42.996Z,9.97
2018-07-16T01:15:11.797Z,9.07
2018-07-16T01:17:40.573Z,9.27
2018-07-16T01:20:09.338Z,8.53
2018-07-16T01:22:38.090Z,8.73
2018-07-16T01:25:06.665Z,7.83
2018-07-16T01:27:35.342Z,10.30
2018-07-16T01:30:04.298Z,10.10
2018-07-16T01:32:33.077Z,8.83
2018-07-16T01:35:01.849Z,9.00
2018-07-16T01:37:30.621Z,7.00
2018-07-16T01:39:59.365Z,7.87
2018-07-16T01:42:28.160Z,7.10
2018-07-16T01:44:56.944Z,8.13
2018-07-16T01:47:25.713Z,7.00
2018-07-16T01:49:54.449Z,8.27
2018-07-16T01:52:23.041Z,7.13
2018-07-16T01:54:51.724Z,7.63
2018-07-16T01:57:20.491Z,7.13
2018-07-16T01:59:49.257Z,6.33
2018-07-16T02:02:18.006Z,6.73
2018-07-16T02:04:46.795Z,7.50
2018-07-16T02:07:15.545Z,7.20
2018-07-16T02:09:44.324Z,6.73
2018-07-16T02:12:13.105Z,6.10
2018-07-16T02:14:41.870Z,7.13
2018-07-16T02:17:10.613Z,6.47
2018-07-16T02:19:39.217Z,7.47
2018-07-16T02:22:07.904Z,7.30
2018-07-16T02:24:36.649Z,5.93
2018-07-16T02:27:05.394Z,6.83
2018-07-16T02:29:34.149Z,6.80
2018-07-16T02:32:02.905Z,7.87
2018-07-16T02:34:31.701Z,5.80
2018-07-16T02:37:00.479Z,5.70
2018-07-16T02:39:29.250Z,6.20
2018-07-16T02:41:57.978Z,6.20
2018-07-16T02:44:26.755Z,6.80
2018-07-16T02:46:55.506Z,6.93
2018-07-16T02:49:24.292Z,6.47
2018-07-16T02:51:53.039Z,5.43
2018-07-16T02:54:21.882Z,6.83
2018-07-16T02:56:50.650Z,4.77
2018-07-16T02:59:19.409Z,5.40
2018-07-16T03:01:47.945Z,6.03
2018-07-16T03:04:16.629Z,6.77
2018-07-16T03:06:45.482Z,4.83
2018-07-16T03:09:14.265Z,6.33
2018-07-16T03:11:42.996Z,6.23
2018-07-16T03:14:11.748Z,6.77
2018-07-16T03:16:40.506Z,4.87
2018-07-16T03:19:09.269Z,7.20
2018-07-16T03:21:38.113Z,7.33
2018-07-16T03:24:06.874Z,8.27
2018-07-16T03:26:35.609Z,6.27
2018-07-16T03:29:04.380Z,7.57
2018-07-16T03:31:33.138Z,5.53
2018-07-16T03:34:01.892Z,7.43
2018-07-16T03:36:30.537Z,5.97
2018-07-16T03:38:59.330Z,7.47
2018-07-16T03:41:28.101Z,6.50
2018-07-16T03:43:56.697Z,5.23
2018-07-16T03:46:25.376Z,5.83
2018-07-16T03:48:53.968Z,5.57
2018-07-16T03:51:22.632Z,5.97
2018-07-16T03:53:51.393Z,6.53
2018-07-16T03:56:20.204Z,6.57
2018-07-16T03:58:48.993Z,5.77
2018-07-16T04:01:17.894Z,6.53
2018-07-16T04:03:46.641Z,5.53
2018-07-16T04:06:15.407Z,6.57
2018-07-16T04:08:44.237Z,5.23
2018-07-16T04:11:12.984Z,6.27
2018-07-16T04:13:41.733Z,6.50
2018-07-16T04:16:10.332Z,7.43
2018-07-16T04:18:39.013Z,5.87
2018-07-16T04:21:07.817Z,7.03
2018-07-16T04:23:36.561Z,4.90
2018-07-16T04:26:05.365Z,5.83
2018-07-16T04:28:34.127Z,4.90
2018-07-16T04:31:02.996Z,5.17
2018-07-16T04:33:31.673Z,5.77
2018-07-16T04:36:00.465Z,5.53
2018-07-16T04:38:29.205Z,5.70
2018-07-16T04:40:57.804Z,5.97
2018-07-16T04:43:26.456Z,8.97
2018-07-16T04:45:55.221Z,5.27
2018-07-16T04:48:23.988Z,5.77
2018-07-16T04:50:52.743Z,5.90
2018-07-16T04:53:21.570Z,8.37
2018-07-16T04:55:50.108Z,7.50
2018-07-16T04:58:18.805Z,6.30
2018-07-16T05:00:47.385Z,6.27
2018-07-16T05:03:15.925Z,5.67
2018-07-16T05:05:44.550Z,5.70
2018-07-16T05:08:13.334Z,5.27
2018-07-16T05:10:42.129Z,5.37
2018-07-16T05:13:10.909Z,8.20
2018-07-16T05:15:39.850Z,5.93
2018-07-16T05:18:08.468Z,6.63
2018-07-16T05:20:36.897Z,6.10
2018-07-16T05:23:06.225Z,8.07
2018-07-16T05:25:35.010Z,6.97
2018-07-16T05:28:03.758Z,5.90
2018-07-16T05:30:32.510Z,6.33
2018-07-16T05:33:01.286Z,6.67
2018-07-16T05:35:30.065Z,6.90
2018-07-16T05:37:58.813Z,9.90
2018-07-16T05:40:27.585Z,5.63
2018-07-16T05:42:56.358Z,6.40
2018-07-16T05:45:25.165Z,6.73
2018-07-16T05:47:53.957Z,7.43
2018-07-16T05:50:22.692Z,5.53
2018-07-16T05:52:51.464Z,5.97
2018-07-16T05:55:20.229Z,7.13
2018-07-16T05:57:48.993Z,6.87
2018-07-16T06:00:17.829Z,6.23
2018-07-16T06:02:46.585Z,8.17
2018-07-16T06:05:15.350Z,6.40
2018-07-16T06:07:44.077Z,7.77
2018-07-16T06:10:12.859Z,8.00
2018-07-16T06:12:41.662Z,8.13
2018-07-16T06:15:10.414Z,6.97
2018-07-16T06:17:39.178Z,6.90
2018-07-16T06:20:09.879Z,7.10
2018-07-16T06:22:38.625Z,8.03
2018-07-16T06:25:07.746Z,7.93
2018-07-16T06:27:36.501Z,8.43
2018-07-16T06:30:05.312Z,9.57
2018-07-16T06:32:34.149Z,6.47
2018-07-16T06:35:02.865Z,6.20
2018-07-16T06:37:31.625Z,8.37
2018-07-16T06:40:00.704Z,5.43
2018-07-16T06:42:29.500Z,7.53
2018-07-16T06:44:58.296Z,7.17
2018-07-16T06:47:27.049Z,9.47
2018-07-16T06:49:55.825Z,7.97
2018-07-16T06:52:24.594Z,7.73
2018-07-16T06:54:53.333Z,6.70
2018-07-16T06:57:22.102Z,7.80
2018-07-16T06:59:50.853Z,8.30
2018-07-16T07:02:19.818Z,5.80
2018-07-16T07:04:48.555Z,7.90
2018-07-16T07:07:17.325Z,6.63
2018-07-16T07:09:46.238Z,6.83
2018-07-16T07:12:15.046Z,6.73
2018-07-16T07:14:43.642Z,8.00
2018-07-16T07:17:12.157Z,13.20
2018-07-16T07:19:40.822Z,7.90
2018-07-16T07:22:09.589Z,9.60
2018-07-16T07:24:38.377Z,8.00
2018-07-16T07:27:07.153Z,6.93
2018-07-16T07:29:35.906Z,7.53
2018-07-16T07:32:04.691Z,8.13
2018-07-16T07:34:33.413Z,8.13
2018-07-16T07:37:02.034Z,11.67
2018-07-16T07:39:30.785Z,6.97
2018-07-16T07:41:59.577Z,7.03
2018-07-16T07:44:28.333Z,7.97
2018-07-16T07:46:57.125Z,5.83
2018-07-16T07:49:25.909Z,7.13
2018-07-16T07:51:54.693Z,6.37
2018-07-16T07:54:23.563Z,7.70
2018-07-16T07:56:52.213Z,8.53
2018-07-16T07:59:20.784Z,7.67
2018-07-16T08:01:49.493Z,5.53
2018-07-16T08:04:18.253Z,6.23
2018-07-16T08:06:52.450Z,5.70
2018-07-16T08:09:21.233Z,5.77
2018-07-16T08:11:50.246Z,6.03
2018-07-16T08:14:19.060Z,8.57
2018-07-16T08:16:47.657Z,7.00
2018-07-16T08:19:16.309Z,6.50
2018-07-16T08:21:45.074Z,8.97
2018-07-16T08:24:13.837Z,9.37
2018-07-16T08:26:42.597Z,7.53
2018-07-16T08:29:11.129Z,4.93
2018-07-16T08:31:39.833Z,6.53
2018-07-16T08:34:08.765Z,8.10
2018-07-16T08:36:37.553Z,8.10
2018-07-16T08:39:06.654Z,7.77
2018-07-16T08:41:35.418Z,6.43
2018-07-16T08:44:04.228Z,7.83
2018-07-16T08:46:33.077Z,6.03
2018-07-16T08:49:01.898Z,6.37
2018-07-16T08:51:30.600Z,5.30
2018-07-16T08:53:59.454Z,6.70
2018-07-16T08:56:28.322Z,6.73
2018-07-16T08:58:57.095Z,6.10
2018-07-16T09:01:25.846Z,6.20
2018-07-16T09:03:54.690Z,4.57
2018-07-16T09:06:23.393Z,6.90
2018-07-16T09:08:52.157Z,6.47
2018-07-16T09:11:21.135Z,5.37
2018-07-16T09:13:49.821Z,5.43
2018-07-16T09:16:18.583Z,6.43
2018-07-16T09:18:47.477Z,7.53
2018-07-16T09:21:16.229Z,5.40
2018-07-16T09:23:44.997Z,6.30
2018-07-16T09:26:13.761Z,8.43
2018-07-16T09:28:42.552Z,6.23
2018-07-16T09:31:11.289Z,7.33
2018-07-16T09:33:40.084Z,6.07
2018-07-16T09:36:08.942Z,5.67
2018-07-16T09:38:37.736Z,7.90
2018-07-16T09:41:06.596Z,7.10
2018-07-16T09:43:35.435Z,6.73
2018-07-16T09:46:04.173Z,4.73
2018-07-16T09:48:32.938Z,6.33
2018-07-16T09:51:01.745Z,5.97
2018-07-16T09:53:30.841Z,6.97
2018-07-16T09:55:59.627Z,4.60
2018-07-16T09:58:28.168Z,5.47
2018-07-16T10:01:02.083Z,5.00
2018-07-16T10:03:30.876Z,6.60
2018-07-16T10:05:59.639Z,6.50
2018-07-16T10:08:28.574Z,4.97
2018-07-16T10:10:57.285Z,6.00
2018-07-16T10:13:26.066Z,6.17
2018-07-16T10:15:54.806Z,4.87
2018-07-16T10:18:23.581Z,4.40
2018-07-16T10:20:52.338Z,5.37
2018-07-16T10:23:21.093Z,6.97
2018-07-16T10:25:49.883Z,4.97
2018-07-16T10:28:18.641Z,6.03
2018-07-16T10:30:47.617Z,6.93
2018-07-16T10:33:16.454Z,5.17
2018-07-16T10:35:45.206Z,5.40
2018-07-16T10:38:13.988Z,5.60
2018-07-16T10:40:42.713Z,4.80
2018-07-16T10:43:11.503Z,6.83
2018-07-16T10:45:40.249Z,4.83
2018-07-16T10:48:09.045Z,6.27
2018-07-16T10:50:37.789Z,5.73
2018-07-16T10:53:06.750Z,5.70
2018-07-16T10:55:35.638Z,4.53
2018-07-16T10:58:04.661Z,5.93
2018-07-16T11:00:33.393Z,7.33
2018-07-16T11:03:02.341Z,6.97
2018-07-16T11:05:31.274Z,9.97
2018-07-16T11:07:59.921Z,6.80
2018-07-16T11:10:28.694Z,6.50
2018-07-16T11:12:57.233Z,4.90
2018-07-16T11:15:25.965Z,6.23
2018-07-16T11:17:54.641Z,7.77
2018-07-16T11:20:23.245Z,4.67
2018-07-16T11:22:52.053Z,5.30
2018-07-16T11:25:20.657Z,6.57
2018-07-16T11:27:49.357Z,7.63
2018-07-16T11:30:18.130Z,5.93
2018-07-16T11:32:47.057Z,6.13
2018-07-16T11:35:15.832Z,5.23
2018-07-16T11:37:44.618Z,8.03
2018-07-16T11:40:13.401Z,3.90
2018-07-16T11:42:42.141Z,5.87
2018-07-16T11:45:10.899Z,4.50
2018-07-16T11:47:39.670Z,5.57
2018-07-16T11:50:08.438Z,3.57
2018-07-16T11:52:37.238Z,4.50
2018-07-16T11:55:06.006Z,5.13
2018-07-16T11:57:34.765Z,3.90
2018-07-16T12:00:03.571Z,5.60
2018-07-16T12:02:32.121Z,6.03
2018-07-16T12:05:00.824Z,6.10
2018-07-16T12:07:29.349Z,5.90
2018-07-16T12:09:58.036Z,6.27
2018-07-16T12:12:26.901Z,5.00
2018-07-16T12:14:55.602Z,5.60
2018-07-16T12:17:24.399Z,4.30
2018-07-16T12:19:53.194Z,5.00
2018-07-16T12:22:21.958Z,5.83
2018-07-16T12:24:50.713Z,7.60
2018-07-16T12:27:19.289Z,5.13
2018-07-16T12:29:47.968Z,3.73
2018-07-16T12:32:17.091Z,5.67
2018-07-16T12:34:45.886Z,7.73
2018-07-16T12:37:14.634Z,4.10
2018-07-16T12:39:43.638Z,3.97
2018-07-16T12:42:12.389Z,4.33
2018-07-16T12:44:41.131Z,4.00
2018-07-16T12:47:09.962Z,4.23
2018-07-16T12:49:38.758Z,4.57
2018-07-16T12:52:07.508Z,4.37
2018-07-16T12:54:36.285Z,5.63
2018-07-16T12:57:04.951Z,5.73
2018-07-16T12:59:33.593Z,7.43
2018-07-16T13:02:02.436Z,5.47
2018-07-16T13:04:31.447Z,6.27
2018-07-16T13:07:00.202Z,6.13
2018-07-16T13:09:28.977Z,5.17
2018-07-16T13:11:57.749Z,4.13
2018-07-16T13:14:26.563Z,4.37
2018-07-16T13:16:55.310Z,5.43
2018-07-16T13:19:24.069Z,7.80
2018-07-16T13:21:52.696Z,7.23
2018-07-16T13:24:21.135Z,6.30
2018-07-16T13:26:49.830Z,4.40
2018-07-16T13:29:18.738Z,4.50
2018-07-16T13:31:47.505Z,3.80
2018-07-16T13:34:16.266Z,4.47
2018-07-16T13:36:45.277Z,4.83
2018-07-16T13:39:13.862Z,6.80
2018-07-16T13:41:42.352Z,3.10
2018-07-16T13:44:11.292Z,4.77
2018-07-16T13:46:40.104Z,4.57
2018-07-16T13:49:08.806Z,5.00
2018-07-16T13:51:37.565Z,5.97
2018-07-16T13:54:06.702Z,5.07
2018-07-16T13:56:35.669Z,3.63
2018-07-16T13:59:04.414Z,3.90
2018-07-16T14:01:33.192Z,5.57
2018-07-16T14:04:01.952Z,5.70
2018-07-16T14:06:30.705Z,4.30
2018-07-16T14:08:59.634Z,5.70
2018-07-16T14:11:28.280Z,5.73
2018-07-16T14:13:56.929Z,4.37
2018-07-16T14:16:25.790Z,4.97
2018-07-16T14:18:54.493Z,4.63
2018-07-16T14:21:23.187Z,4.73
2018-07-16T14:23:51.957Z,4.80
2018-07-16T14:26:20.737Z,4.20
2018-07-16T14:28:49.485Z,3.70
2018-07-16T14:31:18.446Z,3.93
2018-07-16T14:33:47.102Z,7.10
2018-07-16T14:36:15.874Z,3.20
2018-07-16T14:38:44.690Z,4.00
2018-07-16T14:41:13.282Z,3.40
2018-07-16T14:43:41.938Z,4.93
2018-07-16T14:46:10.969Z,4.20
2018-07-16T14:48:39.722Z,6.97
2018-07-16T14:51:08.541Z,8.27
2018-07-16T14:53:37.075Z,6.10
2018-07-16T14:56:05.782Z,6.37
2018-07-16T14:58:34.565Z,4.30
2018-07-16T15:01:03.374Z,5.17
2018-07-16T15:03:31.981Z,4.67
2018-07-16T15:06:00.669Z,3.80
2018-07-16T15:08:29.445Z,3.83
2018-07-16T15:10:58.333Z,3.10
2018-07-16T15:13:27.009Z,2.53
2018-07-16T15:15:55.469Z,5.30
2018-07-16T15:18:24.338Z,4.57
2018-07-16T15:20:53.296Z,4.07
2018-07-16T15:23:21.898Z,4.00
2018-07-16T15:25:50.640Z,5.00
2018-07-16T15:28:19.433Z,5.87
2018-07-16T15:30:48.226Z,5.30
2018-07-16T15:33:16.913Z,3.10
2018-07-16T15:35:45.628Z,6.03
2018-07-16T15:38:14.353Z,3.70
2018-07-16T15:40:43.221Z,5.63
2018-07-16T15:43:11.979Z,3.57
2018-07-16T15:45:40.733Z,3.53
2018-07-16T15:48:09.493Z,4.43
2018-07-16T15:50:38.233Z,5.40
2018-07-16T15:53:06.809Z,3.23
2018-07-16T15:55:35.249Z,5.90
2018-07-16T15:58:03.923Z,3.73
2018-07-16T16:00:32.686Z,5.83
2018-07-16T16:03:01.505Z,4.47
2018-07-16T16:05:30.245Z,4.00
2018-07-16T16:07:58.780Z,4.70
2018-07-16T16:10:27.465Z,3.73
2018-07-16T16:12:56.200Z,3.97
2018-07-16T16:15:24.949Z,5.73
2018-07-16T16:17:53.714Z,6.57
2018-07-16T16:20:22.773Z,3.60
2018-07-16T16:22:51.381Z,3.83
2018-07-16T16:25:20.124Z,3.33
2018-07-16T16:27:48.873Z,5.67
2018-07-16T16:30:17.637Z,4.90
2018-07-16T16:32:46.604Z,3.40
2018-07-16T16:35:15.105Z,4.07
2018-07-16T16:37:43.756Z,3.73
2018-07-16T16:40:12.515Z,4.67
2018-07-16T16:42:41.257Z,6.00
2018-07-16T16:45:09.836Z,4.07
2018-07-16T16:47:38.333Z,3.77
2018-07-16T16:50:07.073Z,4.57
2018-07-16T16:52:35.869Z,4.67
2018-07-16T16:55:04.633Z,4.00
2018-07-16T16:57:33.378Z,3.80
2018-07-16T17:00:02.150Z,6.40
2018-07-16T17:02:30.884Z,4.37
2018-07-16T17:04:59.725Z,7.57
2018-07-16T17:07:28.762Z,3.23
2018-07-16T17:09:57.725Z,3.73
2018-07-16T17:12:26.269Z,3.30
2018-07-16T17:14:54.957Z,5.23
2018-07-16T17:17:23.726Z,3.23
2018-07-16T17:19:52.670Z,3.50
2018-07-16T17:22:21.434Z,7.80
2018-07-16T17:24:50.897Z,4.43
2018-07-16T17:27:19.650Z,4.13
2018-07-16T17:29:48.393Z,5.13
2018-07-16T17:32:17.442Z,4.43
2018-07-16T17:34:46.042Z,6.20
2018-07-16T17:37:14.689Z,4.67
2018-07-16T17:39:43.540Z,4.00
2018-07-16T17:42:12.301Z,5.83
2018-07-16T17:44:41.197Z,5.13
2018-07-16T17:47:09.741Z,6.93
2018-07-16T17:49:38.416Z,4.93
2018-07-16T17:52:07.205Z,5.33
2018-07-16T17:54:35.974Z,7.83
2018-07-16T17:57:04.962Z,5.10
2018-07-16T17:59:33.709Z,4.07
2018-07-16T18:02:02.280Z,5.47
2018-07-16T18:04:30.971Z,4.43
2018-07-16T18:06:59.910Z,4.77
2018-07-16T18:09:28.650Z,5.90
2018-07-16T18:11:57.409Z,6.33
2018-07-16T18:14:26.174Z,6.53
2018-07-16T18:16:54.919Z,6.57
2018-07-16T18:19:23.692Z,4.27
2018-07-16T18:21:52.529Z,6.37
2018-07-16T18:24:21.040Z,6.83
2018-07-16T18:26:49.689Z,4.97
2018-07-16T18:29:18.445Z,5.23
2018-07-16T18:31:47.182Z,5.47
2018-07-16T18:34:15.943Z,6.47
2018-07-16T18:36:44.691Z,5.67
2018-07-16T18:39:13.465Z,6.03
2018-07-16T18:41:42.198Z,5.77
2018-07-16T18:44:10.777Z,5.87
2018-07-16T18:46:39.265Z,4.80
2018-07-16T18:49:07.964Z,5.80
2018-07-16T18:51:36.488Z,5.43
2018-07-16T18:54:05.165Z,4.30
2018-07-16T18:56:33.910Z,7.00
2018-07-16T18:59:02.458Z,8.17
2018-07-16T19:01:31.253Z,6.27
2018-07-16T19:04:00.042Z,6.70
2018-07-16T19:06:28.770Z,6.47
2018-07-16T19:08:57.508Z,5.17
2018-07-16T19:11:26.246Z,6.60
2018-07-16T19:13:55.010Z,6.73
2018-07-16T19:16:23.785Z,6.77
2018-07-16T19:18:52.731Z,8.20
2018-07-16T19:21:22.083Z,6.03
2018-07-16T19:23:50.868Z,5.40
2018-07-16T19:26:19.617Z,6.53
2018-07-16T19:28:48.353Z,5.87
2018-07-16T19:31:17.144Z,7.10
2018-07-16T19:33:45.925Z,5.60
2018-07-16T19:36:14.653Z,7.03
2018-07-16T19:38:43.424Z,5.13
2018-07-16T19:41:12.193Z,5.33
2018-07-16T19:43:41.003Z,5.37
2018-07-16T19:46:09.749Z,6.97
2018-07-16T19:48:38.516Z,5.47
2018-07-16T19:51:07.293Z,4.83
2018-07-16T19:53:36.038Z,9.03
2018-07-16T19:56:04.773Z,6.73
2018-07-16T19:58:33.540Z,5.93
2018-07-16T20:01:02.301Z,7.73
2018-07-16T20:03:31.085Z,9.13
2018-07-16T20:05:59.855Z,7.33
2018-07-16T20:08:28.766Z,8.17
2018-07-16T20:10:57.523Z,6.10
2018-07-16T20:13:26.353Z,6.97
2018-07-16T20:15:56.753Z,8.20
2018-07-16T20:18:25.507Z,6.73
2018-07-16T20:20:56.721Z,8.23
2018-07-16T20:23:25.304Z,7.80
2018-07-16T20:25:55.532Z,6.27
2018-07-16T20:28:24.277Z,7.23
2018-07-16T20:30:52.950Z,7.30
2018-07-16T20:33:21.805Z,7.47
2018-07-16T20:35:50.388Z,6.73
2018-07-16T20:38:19.041Z,8.17
2018-07-16T20:40:47.849Z,6.63
2018-07-16T20:43:16.724Z,7.17
2018-07-16T20:45:45.466Z,9.10
2018-07-16T20:48:14.298Z,6.53
2018-07-16T20:50:43.060Z,6.53
2018-07-16T20:53:11.908Z,6.23
2018-07-16T20:55:40.489Z,12.33
2018-07-16T20:58:09.173Z,6.00
2018-07-16T21:00:37.849Z,10.87
2018-07-16T21:03:06.413Z,6.57
2018-07-16T21:05:35.165Z,6.27
2018-07-16T21:08:03.967Z,6.80
2018-07-16T21:10:32.737Z,7.20
2018-07-16T21:13:01.504Z,7.00
2018-07-16T21:15:30.353Z,6.47
2018-07-16T21:17:59.140Z,5.77
2018-07-16T21:20:27.874Z,6.47
2018-07-16T21:22:56.625Z,10.07
2018-07-16T21:25:25.402Z,8.73
2018-07-16T21:27:54.181Z,5.57
2018-07-16T21:30:23.014Z,8.07
2018-07-16T21:32:51.558Z,7.20
2018-07-16T21:35:20.214Z,7.60
2018-07-16T21:37:48.950Z,6.10
2018-07-16T21:40:17.721Z,7.57
2018-07-16T21:42:46.458Z,8.83
2018-07-16T21:45:15.224Z,7.13
2018-07-16T21:47:43.962Z,7.83
2018-07-16T21:50:12.713Z,7.20
2018-07-16T21:52:41.440Z,7.77
2018-07-16T21:55:10.126Z,6.50
2018-07-16T21:57:38.874Z,8.27
2018-07-16T22:00:09.698Z,9.17
2018-07-16T22:02:38.434Z,6.47
2018-07-16T22:05:07.225Z,9.10
2018-07-16T22:07:35.991Z,6.63
2018-07-16T22:10:04.545Z,7.97
2018-07-16T22:12:33.033Z,8.70
2018-07-16T22:15:01.712Z,5.70
2018-07-16T22:17:30.469Z,6.83
2018-07-16T22:19:59.221Z,6.93
2018-07-16T22:22:27.953Z,6.63
2018-07-16T22:24:56.785Z,7.23
2018-07-16T22:27:25.494Z,8.33
2018-07-16T22:29:54.308Z,7.07
2018-07-16T22:32:23.049Z,7.57
2018-07-16T22:34:51.817Z,6.60
2018-07-16T22:37:20.581Z,7.83
2018-07-16T22:39:49.314Z,6.87
2018-07-16T22:42:18.058Z,8.37
2018-07-16T22:44:46.857Z,9.23
2018-07-16T22:47:15.630Z,8.07
2018-07-16T22:49:44.367Z,7.73
2018-07-16T22:52:13.145Z,6.97
2018-07-16T22:54:41.741Z,7.90
2018-07-16T22:57:10.405Z,8.47
2018-07-16T22:59:39.301Z,8.87
2018-07-16T23:02:08.145Z,8.83
2018-07-16T23:04:36.814Z,8.97
2018-07-16T23:07:05.826Z,8.43
2018-07-16T23:09:34.605Z,9.87
2018-07-16T23:12:03.369Z,10.13
2018-07-16T23:14:32.380Z,8.77
2018-07-16T23:17:01.126Z,8.93
2018-07-16T23:19:29.868Z,9.10
2018-07-16T23:21:58.621Z,9.40
2018-07-16T23:24:27.358Z,8.30
2018-07-16T23:26:56.142Z,11.90
2018-07-16T23:29:24.877Z,7.97
2018-07-16T23:31:53.456Z,9.00
2018-07-16T23:34:21.961Z,8.73
2018-07-16T23:36:50.617Z,9.20
2018-07-16T23:39:19.362Z,7.70
2018-07-16T23:41:48.110Z,7.83
2018-07-16T23:44:16.857Z,7.87
2018-07-16T23:46:45.649Z,9.93
2018-07-16T23:49:14.421Z,9.37
2018-07-16T23:51:43.193Z,10.20
2018-07-16T23:54:11.925Z,10.00
2018-07-16T23:56:40.789Z,9.53
2018-07-16T23:59:09.557Z,7.67
